Time;durP1;ratioP1;P1;durP2;ratioP2;P2;SDS_P1;SDS_P2;PMS_P1;PMS_P2;Temp;Humidity;BMP_temperature;BMP_pressure;BME280_temperature;BME280_humidity;BME280_pressure;Samples;Min_cycle;Max_cycle;Signal;HPM_P1;HPM_P2
2021/12/30 07:58:44;;;;;;;7.47;6.68;;;;;;;12.75;100.00;101208.06;5355416;27;20346;-67
2021/12/30 08:01:16;;;;;;;7.75;6.95;;;;;;;12.78;100.00;101210.28;5343953;28;20364;-68
2021/12/30 08:03:47;;;;;;;8.23;6.15;;;;;;;12.83;100.00;101195.47;5338275;28;20043;-68
2021/12/30 08:06:18;;;;;;;7.72;6.10;;;;;;;12.86;100.00;101191.25;5340079;28;20024;-67
2021/12/30 08:08:50;;;;;;;8.77;6.28;;;;;;;12.86;100.00;101188.47;5343842;28;20097;-69
2021/12/30 08:11:22;;;;;;;6.50;5.85;;;;;;;12.86;100.00;101185.69;5342037;28;20023;-67
2021/12/30 08:13:54;;;;;;;7.70;6.03;;;;;;;12.86;100.00;101205.19;5327511;28;20433;-68
2021/12/30 08:16:28;;;;;;;6.40;5.32;;;;;;;12.86;100.00;101210.75;5342339;28;20019;-66
2021/12/30 08:19:00;;;;;;;8.43;5.60;;;;;;;12.88;100.00;101214.06;5335347;28;20028;-67
2021/12/30 08:21:31;;;;;;;4.90;3.70;;;;;;;12.87;100.00;101223.56;5321885;28;20019;-68
2021/12/30 08:24:03;;;;;;;5.28;4.40;;;;;;;12.87;100.00;101232.72;5322293;28;20106;-68
2021/12/30 08:26:34;;;;;;;4.05;3.65;;;;;;;12.86;100.00;101228.28;5321330;28;20028;-69
2021/12/30 08:29:06;;;;;;;4.60;3.63;;;;;;;12.88;100.00;101230.75;5322236;28;20471;-70
2021/12/30 08:31:40;;;;;;;3.80;3.50;;;;;;;12.91;100.00;101224.59;5321812;28;20024;-70
2021/12/30 08:34:11;;;;;;;5.93;3.72;;;;;;;12.91;100.00;101225.44;5320734;28;20066;-69
2021/12/30 08:36:46;;;;;;;4.65;3.40;;;;;;;12.95;100.00;101228.47;5334758;28;20463;-68
2021/12/30 08:39:17;;;;;;;6.13;4.60;;;;;;;12.96;100.00;101232.88;5338520;28;20386;-64
2021/12/30 08:41:49;;;;;;;4.18;3.78;;;;;;;12.97;100.00;101245.72;5339191;28;20118;-64
2021/12/30 08:44:20;;;;;;;4.82;3.72;;;;;;;12.97;100.00;101229.81;5333804;28;20024;-64
2021/12/30 08:46:54;;;;;;;6.40;4.10;;;;;;;12.97;100.00;101229.81;5333902;28;20068;-64
2021/12/30 08:49:25;;;;;;;4.57;3.72;;;;;;;12.99;100.00;101241.50;5340708;27;20476;-65
2021/12/30 08:52:00;;;;;;;4.75;3.72;;;;;;;13.00;100.00;101248.72;5342448;28;20030;-65
2021/12/30 08:54:34;;;;;;;6.22;3.50;;;;;;;13.01;100.00;101261.53;5331225;27;20024;-65
2021/12/30 08:57:06;;;;;;;3.85;3.38;;;;;;;13.04;100.00;101269.28;5325542;28;20507;-66
2021/12/30 08:59:37;;;;;;;5.80;3.60;;;;;;;13.03;100.00;101275.13;5326259;28;20040;-64
2021/12/30 09:02:09;;;;;;;5.03;3.30;;;;;;;13.06;100.00;101280.09;5330228;28;20027;-66
2021/12/30 09:04:42;;;;;;;4.00;3.00;;;;;;;13.08;100.00;101277.84;5321460;28;20028;-66
2021/12/30 09:07:16;;;;;;;4.53;2.85;;;;;;;13.12;100.00;101272.53;5339114;28;20209;-65
2021/12/30 09:09:47;;;;;;;10.98;9.43;;;;;;;13.13;100.00;101274.19;5329431;28;20019;-70
2021/12/30 09:12:19;;;;;;;5.70;3.40;;;;;;;13.16;100.00;101271.63;5326388;28;20471;-70
2021/12/30 09:14:50;;;;;;;3.90;3.03;;;;;;;13.19;100.00;101264.63;5327858;28;20027;-69
2021/12/30 09:17:25;;;;;;;5.03;3.28;;;;;;;13.22;100.00;101266.84;5326803;28;20028;-71
2021/12/30 09:19:56;;;;;;;5.47;3.15;;;;;;;13.27;100.00;101264.03;5328303;28;20067;-69
2021/12/30 09:22:27;;;;;;;5.95;3.65;;;;;;;13.29;100.00;101267.31;5321549;28;20052;-70
2021/12/30 09:24:59;;;;;;;5.10;3.50;;;;;;;13.32;100.00;101277.03;5309985;28;20027;-70
2021/12/30 09:27:30;;;;;;;5.90;3.22;;;;;;;13.34;100.00;101289.56;5317003;28;20036;-71
2021/12/30 09:30:04;;;;;;;5.32;3.45;;;;;;;13.38;100.00;101293.41;5318115;28;20115;-70
2021/12/30 09:32:36;;;;;;;6.10;3.45;;;;;;;13.39;100.00;101291.44;5325628;28;20019;-70
2021/12/30 09:35:10;;;;;;;6.15;3.10;;;;;;;13.41;100.00;101295.59;5327545;28;20043;-69
2021/12/30 09:37:42;;;;;;;4.90;3.00;;;;;;;13.43;100.00;101310.06;5326938;28;20088;-70
2021/12/30 09:40:15;;;;;;;6.10;3.30;;;;;;;13.45;100.00;101296.66;5326965;28;20032;-71
2021/12/30 09:42:52;;;;;;;6.80;3.72;;;;;;;13.45;100.00;101307.00;5326768;28;20028;-70
2021/12/30 09:45:24;;;;;;;6.13;3.38;;;;;;;13.45;100.00;101307.81;5316246;28;20024;-70
2021/12/30 09:47:57;;;;;;;6.32;3.28;;;;;;;13.47;100.00;101307.50;5312140;28;20026;-69
2021/12/30 09:50:32;;;;;;;5.88;3.42;;;;;;;13.46;100.00;101315.03;5326865;28;20042;-69
2021/12/30 09:53:04;;;;;;;10.07;3.80;;;;;;;13.49;100.00;101319.19;5326779;28;20081;-71
2021/12/30 09:55:36;;;;;;;9.82;3.30;;;;;;;13.49;100.00;101314.44;5326603;28;20032;-70
2021/12/30 09:58:08;;;;;;;11.30;5.05;;;;;;;13.47;100.00;101316.72;5326139;28;20043;-71
2021/12/30 10:00:39;;;;;;;14.40;8.80;;;;;;;13.46;100.00;101317.81;5325782;28;20034;-69
2021/12/30 10:03:11;;;;;;;10.20;3.90;;;;;;;13.47;99.71;101315.84;5325245;28;20459;-70
2021/12/30 10:05:43;;;;;;;13.20;3.88;;;;;;;13.48;99.56;101310.00;5325820;28;20084;-70
2021/12/30 10:08:18;;;;;;;10.10;4.68;;;;;;;13.51;99.21;101310.53;5326838;28;20547;-71
2021/12/30 10:10:56;;;;;;;8.02;3.58;;;;;;;13.52;98.76;101323.31;5308882;28;20046;-69
2021/12/30 10:13:30;;;;;;;6.93;3.58;;;;;;;13.53;98.89;101322.22;5305736;28;20027;-70
2021/12/30 10:16:11;;;;;;;7.13;3.60;;;;;;;13.52;98.55;101324.16;5311163;28;20019;-69
2021/12/30 10:18:53;;;;;;;12.02;4.45;;;;;;;13.53;98.54;101311.91;5322257;28;20031;-70
2021/12/30 10:21:38;;;;;;;10.27;4.20;;;;;;;13.55;97.87;101311.59;5304143;28;20111;-70
2021/12/30 10:24:12;;;;;;;8.60;4.10;;;;;;;13.57;97.28;101303.75;5308299;28;20026;-70
2021/12/30 10:26:55;;;;;;;10.95;4.20;;;;;;;13.60;97.67;101314.31;5319720;28;20452;-69
2021/12/30 10:29:27;;;;;;;10.45;3.83;;;;;;;13.61;97.85;101315.97;5322993;28;20118;-70
2021/12/30 10:31:59;;;;;;;8.43;3.90;;;;;;;13.60;97.55;101315.16;5304505;28;20028;-70
2021/12/30 10:34:30;;;;;;;13.75;4.10;;;;;;;13.61;97.71;101316.81;5305665;28;20089;-70
2021/12/30 10:37:02;;;;;;;9.82;4.22;;;;;;;13.61;97.57;101316.81;5318780;28;20031;-71
2021/12/30 10:39:34;;;;;;;13.60;4.53;;;;;;;13.64;96.79;101312.59;5311807;28;20024;-71
2021/12/30 10:42:05;;;;;;;9.75;4.00;;;;;;;13.64;97.02;101321.78;5325461;28;20042;-71
2021/12/30 10:44:51;;;;;;;12.03;4.40;;;;;;;13.64;96.98;101318.97;5314095;28;20024;-71
2021/12/30 10:47:25;;;;;;;12.73;3.78;;;;;;;13.68;96.78;101316.44;5323445;28;20284;-69
2021/12/30 10:50:06;;;;;;;10.90;3.80;;;;;;;13.68;96.60;101328.41;5305667;28;20020;-69
2021/12/30 10:52:55;;;;;;;9.15;3.58;;;;;;;13.74;95.94;101320.00;5307294;28;20031;-68
2021/12/30 10:55:26;;;;;;;9.05;4.15;;;;;;;13.75;95.94;101316.88;5325965;28;20038;-69
2021/12/30 10:57:59;;;;;;;12.57;4.38;;;;;;;13.76;95.76;101328.88;5318529;28;20040;-67
2021/12/30 11:00:34;;;;;;;11.07;3.90;;;;;;;13.77;95.67;101327.75;5303433;28;20058;-68
2021/12/30 11:03:24;;;;;;;12.98;5.30;;;;;;;13.76;95.92;101324.13;5308650;28;20043;-69
2021/12/30 11:06:19;;;;;;;9.60;4.28;;;;;;;13.73;95.34;101321.94;5320927;28;20046;-69
2021/12/30 11:09:13;;;;;;;11.63;4.72;;;;;;;13.75;95.53;101324.41;5321910;28;20091;-68
2021/12/30 11:11:48;;;;;;;11.55;3.60;;;;;;;13.77;94.40;101320.22;5290941;28;20036;-66
2021/12/30 11:14:32;;;;;;;11.10;4.40;;;;;;;13.78;94.93;101321.88;5302911;28;20123;-67
2021/12/30 11:17:11;;;;;;;9.07;5.40;;;;;;;13.78;94.55;101324.66;5303355;28;20425;-69
2021/12/30 11:19:52;;;;;;;9.75;4.45;;;;;;;13.80;94.33;101324.34;5317884;28;20115;-73
2021/12/30 11:22:26;;;;;;;7.55;3.75;;;;;;;13.83;94.26;101313.44;5322154;28;20055;-73
2021/12/30 11:25:03;;;;;;;9.43;3.97;;;;;;;13.84;94.57;101314.28;5323252;28;20103;-70
2021/12/30 11:27:35;;;;;;;16.13;5.78;;;;;;;13.88;93.52;101316.16;5322456;28;20049;-70
2021/12/30 11:30:13;;;;;;;10.75;3.75;;;;;;;13.89;93.25;101314.19;5323053;28;20020;-72
2021/12/30 11:32:48;;;;;;;10.85;3.28;;;;;;;13.93;93.13;101304.09;5307424;28;20058;-71
2021/12/30 11:35:22;;;;;;;10.70;3.35;;;;;;;13.94;93.15;101297.41;5322885;28;20127;-71
2021/12/30 11:37:54;;;;;;;8.35;2.63;;;;;;;13.98;92.63;101314.34;5319362;28;20046;-70
2021/12/30 11:40:26;;;;;;;7.15;3.25;;;;;;;14.01;92.64;101316.53;5303887;28;20480;-70
2021/12/30 11:43:10;;;;;;;8.45;3.88;;;;;;;14.03;92.23;101314.25;5316745;28;20059;-71
2021/12/30 11:45:43;;;;;;;9.85;3.08;;;;;;;14.06;92.06;101322.03;5304944;28;20023;-71
2021/12/30 11:48:32;;;;;;;5.72;3.42;;;;;;;14.07;91.91;101312.53;5305992;28;20501;-69
2021/12/30 11:51:07;;;;;;;7.60;3.42;;;;;;;14.07;91.27;101312.53;5310878;28;20030;-70
2021/12/30 11:53:39;;;;;;;;;;;;;;;14.14;91.93;101318.59;5306080;28;20047;-70
2021/12/30 11:56:10;;;;;;;10.63;3.20;;;;;;;14.14;91.15;101319.41;5301646;28;20294;-69
2021/12/30 11:58:49;;;;;;;7.13;2.97;;;;;;;14.19;91.15;101314.84;5304675;28;20024;-66
2021/12/30 12:01:21;;;;;;;8.80;3.05;;;;;;;14.25;90.62;101325.66;5313440;28;20025;-67
2021/12/30 12:03:52;;;;;;;8.32;3.10;;;;;;;14.29;90.67;101326.72;5301168;28;20020;-69
2021/12/30 12:06:34;;;;;;;7.57;2.60;;;;;;;14.28;90.54;101329.78;5318024;28;20030;-67
2021/12/30 12:09:13;;;;;;;8.38;2.95;;;;;;;14.26;90.69;101316.13;5324247;28;20293;-67
2021/12/30 12:11:58;;;;;;;10.05;2.95;;;;;;;14.27;91.36;101334.56;5324224;28;20062;-67
2021/12/30 12:14:31;;;;;;;8.13;3.20;;;;;;;14.31;90.28;101331.97;5324463;28;20036;-66
2021/12/30 12:17:09;;;;;;;11.93;3.92;;;;;;;14.31;90.81;101330.00;5324775;28;20020;-67
2021/12/30 12:19:46;;;;;;;15.85;10.80;;;;;;;14.32;91.00;101345.63;5303909;28;20028;-67
2021/12/30 12:22:17;;;;;;;6.97;3.33;;;;;;;14.27;90.62;101342.91;5321711;28;20049;-67
2021/12/30 12:25:08;;;;;;;6.93;2.70;;;;;;;14.29;90.40;101351.81;5322263;28;20085;-68
2021/12/30 12:27:45;;;;;;;10.50;3.30;;;;;;;14.27;90.51;101340.13;5324331;28;20332;-71
2021/12/30 12:30:33;;;;;;;9.60;2.83;;;;;;;14.25;90.37;101339.59;5324543;28;20036;-68
2021/12/30 12:33:28;;;;;;;7.28;3.17;;;;;;;14.22;91.21;101337.41;5322722;28;20098;-67
2021/12/30 12:36:15;;;;;;;9.27;2.85;;;;;;;14.22;90.74;101348.56;5317250;28;20151;-68
2021/12/30 12:38:48;;;;;;;9.10;2.80;;;;;;;14.19;90.62;101340.81;5323556;28;20539;-67
2021/12/30 12:41:29;;;;;;;9.63;3.28;;;;;;;14.20;90.66;101345.25;5324673;28;20451;-67
2021/12/30 12:44:06;;;;;;;7.30;3.00;;;;;;;14.22;90.19;101343.00;5316686;28;20024;-69
2021/12/30 12:46:49;;;;;;;5.20;2.55;;;;;;;14.24;90.69;101342.66;5306755;28;20024;-68
2021/12/30 12:49:32;;;;;;;9.77;2.90;;;;;;;14.24;90.44;101339.88;5310412;28;20034;-68
2021/12/30 12:52:05;;;;;;;7.00;3.00;;;;;;;14.23;90.10;101339.06;5312851;28;20134;-68
2021/12/30 12:54:54;;;;;;;6.60;2.40;;;;;;;14.25;89.78;101347.97;5326806;28;20106;-68
2021/12/30 12:57:26;;;;;;;9.73;3.20;;;;;;;14.25;89.75;101347.97;5327901;28;20043;-68
2021/12/30 12:59:59;;;;;;;6.88;2.55;;;;;;;14.25;89.16;101359.13;5327742;28;20485;-68
2021/12/30 13:02:30;;;;;;;5.65;3.30;;;;;;;14.26;89.50;101354.38;5308717;28;20040;-68
2021/12/30 13:05:15;;;;;;;8.68;4.35;;;;;;;14.25;90.38;101356.34;5322728;28;20028;-68
2021/12/30 13:07:50;;;;;;;6.80;3.50;;;;;;;14.25;89.63;101363.88;5327817;28;20024;-67
2021/12/30 13:10:21;;;;;;;4.78;2.88;;;;;;;14.25;89.79;101363.88;5310432;28;20031;-68
2021/12/30 13:13:00;;;;;;;6.97;2.67;;;;;;;14.24;89.51;101373.34;5306941;28;20391;-67
2021/12/30 13:15:39;;;;;;;7.70;3.45;;;;;;;14.22;89.60;101368.09;5325295;28;20031;-69
2021/12/30 13:18:14;;;;;;;6.07;2.40;;;;;;;14.25;89.33;101383.41;5327813;28;20051;-69
2021/12/30 13:20:48;;;;;;;7.25;2.97;;;;;;;14.22;89.75;101370.06;5326812;28;20463;-68
2021/12/30 13:23:32;;;;;;;6.40;2.88;;;;;;;14.22;89.47;101378.44;5325882;28;20050;-70
2021/12/30 13:26:09;;;;;;;9.73;3.55;;;;;;;14.23;89.11;101361.38;5309051;28;20028;-68
2021/12/30 13:28:49;;;;;;;6.07;3.25;;;;;;;14.21;89.26;101383.16;5305611;28;20042;-67
2021/12/30 13:31:21;;;;;;;4.40;2.83;;;;;;;14.22;89.01;101375.66;5306392;28;20495;-68
2021/12/30 13:33:58;;;;;;;8.90;3.13;;;;;;;14.20;88.48;101362.00;5308210;28;20042;-68
2021/12/30 13:36:30;;;;;;;9.93;2.83;;;;;;;14.23;88.60;101369.75;5326651;28;20158;-68
2021/12/30 13:39:12;;;;;;;5.93;2.53;;;;;;;14.21;88.88;101368.38;5326477;28;20036;-68
2021/12/30 13:41:52;;;;;;;4.57;2.58;;;;;;;14.22;89.16;101375.66;5326824;28;20042;-69
2021/12/30 13:44:23;;;;;;;5.25;2.67;;;;;;;14.18;89.04;101366.22;5309433;28;20502;-68
2021/12/30 13:46:54;;;;;;;7.05;2.47;;;;;;;14.16;89.09;101369.28;5317645;28;20055;-67
2021/12/30 13:49:26;;;;;;;6.63;2.95;;;;;;;14.15;88.81;101370.44;5309551;28;20035;-67
2021/12/30 13:51:57;;;;;;;8.68;3.22;;;;;;;14.18;89.01;101380.16;5306063;28;20042;-66
2021/12/30 13:54:28;;;;;;;7.20;2.78;;;;;;;14.16;89.49;101379.63;5306009;28;20027;-67
2021/12/30 13:56:59;;;;;;;5.03;2.75;;;;;;;14.14;89.96;101382.72;5307384;28;20510;-67
2021/12/30 13:59:31;;;;;;;9.32;3.05;;;;;;;14.11;90.38;101386.94;5312921;28;20059;-66
2021/12/30 14:02:11;;;;;;;7.43;2.78;;;;;;;14.10;90.23;101393.63;5305194;28;20016;-67
2021/12/30 14:04:43;;;;;;;6.60;2.50;;;;;;;14.12;89.78;101396.16;5313434;28;20114;-66
2021/12/30 14:07:17;;;;;;;7.78;3.22;;;;;;;14.11;89.91;101394.47;5325254;28;20530;-67
2021/12/30 14:09:54;;;;;;;6.35;2.65;;;;;;;14.11;89.99;101391.69;5315318;28;20031;-67
2021/12/30 14:12:26;;;;;;;5.35;3.42;;;;;;;14.12;90.24;101387.78;5322789;28;20027;-67
2021/12/30 14:15:17;;;;;;;4.15;2.33;;;;;;;14.11;90.06;101386.94;5305085;28;20024;-66
2021/12/30 14:18:08;;;;;;;6.07;2.53;;;;;;;14.10;90.21;101373.28;5314123;28;20028;-65
2021/12/30 14:20:41;;;;;;;5.40;2.63;;;;;;;14.09;90.03;101378.06;5305298;28;20107;-66
2021/12/30 14:23:15;;;;;;;6.85;2.10;;;;;;;14.11;90.29;101380.50;5320041;28;20103;-66
2021/12/30 14:25:47;;;;;;;6.90;2.40;;;;;;;14.08;90.50;101379.16;5325104;28;20019;-66
2021/12/30 14:28:22;;;;;;;8.10;2.40;;;;;;;14.09;90.33;101383.63;5321184;28;20020;-66
2021/12/30 14:30:57;;;;;;;6.82;2.85;;;;;;;14.10;90.26;101384.44;5306567;28;20134;-65
2021/12/30 14:33:34;;;;;;;6.68;2.30;;;;;;;14.08;90.49;101398.69;5315566;28;20027;-65
2021/12/30 14:36:14;;;;;;;4.93;2.63;;;;;;;14.07;90.48;101399.00;5320516;28;20024;-65
2021/12/30 14:38:46;;;;;;;5.38;2.30;;;;;;;14.06;90.63;101400.13;5323025;28;20114;-67
2021/12/30 14:41:22;;;;;;;5.88;2.70;;;;;;;14.07;90.83;101396.22;5316008;28;20107;-66
2021/12/30 14:44:08;;;;;;;5.78;2.55;;;;;;;14.06;90.71;101411.28;5325423;28;20057;-66
2021/12/30 14:46:43;;;;;;;4.93;2.67;;;;;;;14.06;91.31;101409.34;5325270;28;20354;-64
2021/12/30 14:49:18;;;;;;;6.00;2.35;;;;;;;14.05;91.23;101412.41;5315547;28;20020;-66
2021/12/30 14:52:13;;;;;;;4.95;2.65;;;;;;;14.07;91.42;101412.94;5308294;28;20462;-66
2021/12/30 14:54:45;;;;;;;4.13;2.42;;;;;;;14.05;91.76;101427.19;5326376;28;20047;-66
2021/12/30 14:57:24;;;;;;;6.57;2.78;;;;;;;14.03;91.85;101423.84;5321788;28;20102;-65
2021/12/30 15:00:01;;;;;;;7.03;2.25;;;;;;;14.06;91.71;101419.63;5311224;28;20558;-64
2021/12/30 15:02:33;;;;;;;3.50;1.85;;;;;;;14.05;91.88;101426.34;5324947;28;20023;-65
2021/12/30 15:05:05;;;;;;;4.55;2.13;;;;;;;14.07;92.10;101421.31;5304392;28;20020;-65
2021/12/30 15:07:38;;;;;;;5.95;2.35;;;;;;;14.07;91.95;101424.09;5315665;28;20455;-65
2021/12/30 15:10:12;;;;;;;3.63;1.90;;;;;;;14.08;92.45;101442.47;5313012;28;20020;-66
2021/12/30 15:12:45;;;;;;;4.00;2.42;;;;;;;14.08;92.38;101436.91;5325384;28;20489;-67
2021/12/30 15:15:20;;;;;;;6.65;3.85;;;;;;;14.06;92.78;101434.44;5310623;28;20032;-66
2021/12/30 15:17:54;;;;;;;6.68;2.85;;;;;;;14.09;92.90;101433.00;5305096;28;20317;-66
2021/12/30 15:20:31;;;;;;;7.30;2.83;;;;;;;14.09;92.48;101449.75;5302918;28;20107;-68
2021/12/30 15:23:03;;;;;;;3.83;2.50;;;;;;;14.07;92.90;101440.84;5308202;28;20027;-65
2021/12/30 15:25:35;;;;;;;4.75;2.47;;;;;;;14.04;93.46;101444.22;5317828;28;20028;-66
2021/12/30 15:28:06;;;;;;;6.78;2.78;;;;;;;14.02;93.04;101447.31;5320163;28;20077;-71
2021/12/30 15:30:38;;;;;;;6.63;3.58;;;;;;;13.97;92.81;101443.75;5307595;28;20496;-69
2021/12/30 15:33:09;;;;;;;6.63;3.72;;;;;;;13.88;92.43;101460.28;5304443;28;20471;-73
2021/12/30 15:35:41;;;;;;;6.60;3.63;;;;;;;13.87;94.25;101459.47;5322860;28;20031;-73
2021/12/30 15:38:13;;;;;;;7.38;3.38;;;;;;;13.90;95.49;101464.44;5325031;28;20020;-73
2021/12/30 15:40:46;;;;;;;8.85;5.03;;;;;;;13.90;95.89;101461.66;5325128;28;20095;-73
2021/12/30 15:43:18;;;;;;;9.48;6.10;;;;;;;13.88;96.24;101466.72;5307398;28;20016;-73
2021/12/30 15:45:51;;;;;;;5.88;3.70;;;;;;;13.86;96.64;101468.97;5303321;28;20387;-74
2021/12/30 15:48:27;;;;;;;6.35;3.20;;;;;;;13.85;96.58;101478.44;5313303;28;20095;-72
2021/12/30 15:50:58;;;;;;;;;;;;;;;13.87;96.66;101481.78;5325111;28;20023;-74
2021/12/30 15:53:30;;;;;;;5.75;3.47;;;;;;;13.84;97.48;101485.16;5310598;28;20371;-73
2021/12/30 15:56:01;;;;;;;8.18;4.95;;;;;;;13.85;97.70;101483.19;5324348;28;20050;-73
2021/12/30 15:58:33;;;;;;;6.13;3.80;;;;;;;13.84;97.68;101481.56;5312248;28;20047;-73
2021/12/30 16:01:04;;;;;;;9.00;4.53;;;;;;;13.81;98.07;101488.56;5319129;28;20051;-73
2021/12/30 16:03:35;;;;;;;5.15;4.45;;;;;;;13.75;98.31;101495.28;5322220;28;20070;-74
2021/12/30 16:06:07;;;;;;;8.02;4.38;;;;;;;13.77;98.39;101493.03;5324913;28;20502;-71
2021/12/30 16:08:39;;;;;;;6.88;4.63;;;;;;;13.76;98.49;101505.34;5324689;28;20039;-71
2021/12/30 16:11:10;;;;;;;8.18;4.63;;;;;;;13.77;98.76;101506.97;5324144;28;20020;-71
2021/12/30 16:13:42;;;;;;;5.60;4.70;;;;;;;13.72;98.89;101515.41;5320496;28;20020;-72
2021/12/30 16:16:13;;;;;;;6.85;4.47;;;;;;;13.74;99.75;101509.53;5303962;28;20025;-71
2021/12/30 16:18:45;;;;;;;11.07;5.28;;;;;;;13.72;99.74;101512.59;5308710;28;20470;-72
2021/12/30 16:21:16;;;;;;;8.45;4.88;;;;;;;13.72;99.97;101528.50;5327200;28;20020;-73
2021/12/30 16:23:48;;;;;;;5.68;4.47;;;;;;;13.65;99.75;101514.91;5328442;28;20653;-73
2021/12/30 16:26:20;;;;;;;9.27;5.55;;;;;;;13.68;100.00;101522.69;5328664;28;20039;-73
2021/12/30 16:28:51;;;;;;;6.63;5.05;;;;;;;13.67;100.00;101523.81;5308761;28;20455;-73
2021/12/30 16:31:22;;;;;;;7.43;5.70;;;;;;;13.67;100.00;101521.03;5306880;28;20024;-75
2021/12/30 16:33:54;;;;;;;7.47;5.05;;;;;;;13.64;100.00;101522.44;5307538;28;20028;-75
2021/12/30 16:36:25;;;;;;;9.60;5.47;;;;;;;13.64;100.00;101528.00;5326144;28;20020;-76
2021/12/30 16:38:58;;;;;;;7.50;5.57;;;;;;;13.63;100.00;101531.13;5325783;28;20043;-71
2021/12/30 16:41:29;;;;;;;5.88;4.85;;;;;;;13.62;100.00;101537.78;5317654;28;20064;-71
2021/12/30 16:44:01;;;;;;;9.75;5.68;;;;;;;13.65;100.00;101540.00;5325813;28;20055;-73
2021/12/30 16:46:41;;;;;;;6.90;5.60;;;;;;;13.63;100.00;101545.88;5328025;28;20032;-71
2021/12/30 16:49:16;;;;;;;6.57;5.05;;;;;;;13.62;100.00;101552.56;5328239;28;20038;-70
2021/12/30 16:51:52;;;;;;;8.98;4.80;;;;;;;13.63;100.00;101547.84;5306765;28;20052;-71
2021/12/30 16:54:23;;;;;;;7.05;6.28;;;;;;;13.62;100.00;101546.16;5307025;28;20027;-72
2021/12/30 16:56:54;;;;;;;10.82;6.40;;;;;;;13.61;100.00;101545.34;5307413;28;20044;-71
2021/12/30 16:59:25;;;;;;;8.23;5.28;;;;;;;13.59;100.00;101547.56;5306976;28;20039;-72
2021/12/30 17:01:57;;;;;;;8.00;5.53;;;;;;;13.61;100.00;101545.34;5312056;28;20031;-71
2021/12/30 17:04:32;;;;;;;9.77;6.10;;;;;;;13.57;100.00;101549.00;5328048;28;20084;-72
2021/12/30 17:07:06;;;;;;;12.18;7.68;;;;;;;13.55;100.00;101554.03;5320847;28;20035;-70
2021/12/30 17:09:38;;;;;;;10.52;5.50;;;;;;;13.54;100.00;101544.00;5307926;28;20028;-70
2021/12/30 17:12:09;;;;;;;9.10;5.53;;;;;;;13.53;100.00;101553.50;5313044;28;20097;-71
2021/12/30 17:14:41;;;;;;;7.82;6.13;;;;;;;13.53;100.00;101550.72;5326422;28;20060;-72
2021/12/30 17:17:15;;;;;;;8.00;5.85;;;;;;;13.52;100.00;101551.81;5328354;28;20032;-71
2021/12/30 17:19:46;;;;;;;6.85;5.50;;;;;;;13.51;100.00;101561.31;5326865;28;20035;-71
2021/12/30 17:22:18;;;;;;;8.10;5.22;;;;;;;13.51;100.00;101566.91;5326996;28;20035;-73
2021/12/30 17:24:52;;;;;;;7.53;5.80;;;;;;;13.51;100.00;101564.09;5314801;28;20398;-72
2021/12/30 17:27:23;;;;;;;7.38;5.78;;;;;;;13.50;100.00;101566.06;5305977;28;20052;-72
2021/12/30 17:29:55;;;;;;;8.75;6.95;;;;;;;13.49;100.00;101565.22;5308529;28;20066;-71
